createdAt,value
2019-05-09T00:02:25.721Z,57.98
2019-05-09T00:04:53.773Z,57.99
2019-05-09T00:07:23.332Z,57.97
2019-05-09T00:09:53.357Z,58.00
2019-05-09T00:12:23.244Z,57.98
2019-05-09T00:14:50.970Z,57.88
2019-05-09T00:17:18.987Z,57.95
2019-05-09T00:19:46.971Z,57.95
2019-05-09T00:22:15.001Z,57.97
2019-05-09T00:24:44.738Z,57.81
2019-05-09T00:27:14.162Z,57.79
2019-05-09T00:29:48.402Z,57.84
2019-05-09T00:32:38.225Z,57.78
2019-05-09T00:35:27.485Z,57.70
2019-05-09T00:37:57.453Z,57.77
2019-05-09T00:40:25.440Z,57.74
2019-05-09T00:42:53.451Z,57.69
2019-05-09T00:45:58.426Z,57.72
2019-05-09T00:48:33.737Z,57.63
2019-05-09T00:51:03.461Z,57.63
2019-05-09T00:53:33.743Z,57.63
2019-05-09T00:56:03.871Z,57.63
2019-05-09T00:58:33.151Z,57.56
2019-05-09T01:01:00.884Z,57.58
2019-05-09T01:03:28.914Z,57.57
2019-05-09T01:05:56.970Z,57.57
2019-05-09T01:08:25.006Z,57.58
2019-05-09T01:11:08.215Z,57.59
2019-05-09T01:13:23.212Z,57.58
2019-05-09T01:15:52.868Z,57.53
2019-05-09T01:18:21.142Z,57.44
2019-05-09T01:20:49.174Z,57.50
2019-05-09T01:23:17.209Z,57.55
2019-05-09T01:25:45.243Z,57.46
2019-05-09T01:28:13.962Z,57.50
2019-05-09T01:30:43.856Z,57.43
2019-05-09T01:33:33.158Z,57.37
2019-05-09T01:36:00.603Z,57.43
2019-05-09T01:38:28.614Z,57.40
2019-05-09T01:40:56.629Z,57.40
2019-05-09T01:43:24.596Z,57.37
2019-05-09T01:45:54.073Z,57.28
2019-05-09T01:48:23.450Z,57.33
2019-05-09T01:50:53.627Z,57.22
2019-05-09T01:53:26.327Z,57.32
2019-05-09T01:56:00.574Z,57.23
2019-05-09T01:58:28.570Z,57.27
2019-05-09T02:00:56.668Z,57.27
2019-05-09T02:03:24.673Z,57.29
2019-05-09T02:05:53.282Z,57.29
2019-05-09T02:08:23.495Z,57.22
2019-05-09T02:10:51.531Z,57.22
2019-05-09T02:13:19.591Z,57.27
2019-05-09T02:15:54.821Z,57.27
2019-05-09T02:18:46.242Z,57.25
2019-05-09T02:21:14.660Z,57.17
2019-05-09T02:23:43.242Z,57.20
2019-05-09T02:26:13.479Z,57.14
2019-05-09T02:28:42.730Z,57.10
2019-05-09T02:31:10.794Z,57.12
2019-05-09T02:33:38.857Z,57.09
2019-05-09T02:36:25.646Z,57.14
2019-05-09T02:38:53.639Z,57.07
2019-05-09T02:41:21.647Z,57.11
2019-05-09T02:43:49.966Z,57.08
2019-05-09T02:46:29.469Z,57.03
2019-05-09T02:48:59.431Z,57.08
2019-05-09T02:51:29.243Z,57.03
2019-05-09T02:53:58.593Z,57.05
2019-05-09T02:56:29.463Z,56.99
2019-05-09T02:59:09.919Z,57.05
2019-05-09T03:02:03.130Z,57.02
2019-05-09T03:04:31.158Z,56.96
2019-05-09T03:06:59.892Z,56.96
2019-05-09T03:09:28.775Z,56.97
2019-05-09T03:11:59.089Z,56.93
2019-05-09T03:14:28.674Z,56.92
2019-05-09T03:16:58.727Z,56.92
2019-05-09T03:19:29.446Z,56.82
2019-05-09T03:22:00.299Z,56.84
2019-05-09T03:24:28.971Z,56.84
2019-05-09T03:27:01.583Z,56.83
2019-05-09T03:29:52.564Z,56.82
2019-05-09T03:32:20.620Z,56.85
2019-05-09T03:34:48.646Z,56.80
2019-05-09T03:37:17.654Z,56.71
2019-05-09T03:39:47.847Z,56.75
2019-05-09T03:42:18.945Z,56.76
2019-05-09T03:44:47.538Z,56.73
2019-05-09T03:47:29.907Z,56.71
2019-05-09T03:50:11.748Z,56.73
2019-05-09T03:52:39.803Z,56.68
2019-05-09T03:55:08.150Z,56.70
2019-05-09T03:57:38.949Z,56.72
2019-05-09T04:00:07.677Z,56.69
2019-05-09T04:02:38.266Z,56.60
2019-05-09T04:05:07.984Z,56.59
2019-05-09T04:07:35.459Z,56.59
2019-05-09T04:10:03.489Z,56.64
2019-05-09T04:12:31.638Z,56.65
2019-05-09T04:14:59.637Z,56.64
2019-05-09T04:17:43.349Z,56.59
2019-05-09T04:20:11.353Z,56.54
2019-05-09T04:22:39.413Z,56.58
2019-05-09T04:25:08.130Z,56.56
2019-05-09T04:27:37.455Z,56.55
2019-05-09T04:30:07.254Z,56.56
2019-05-09T04:32:37.232Z,56.53
2019-05-09T04:35:05.089Z,56.49
2019-05-09T04:37:33.091Z,56.55
2019-05-09T04:40:03.338Z,56.54
2019-05-09T04:42:34.994Z,56.50
2019-05-09T04:45:09.561Z,56.53
2019-05-09T04:47:39.440Z,56.43
2019-05-09T04:50:07.433Z,56.49
2019-05-09T04:52:34.883Z,56.41
2019-05-09T04:55:03.069Z,56.42
2019-05-09T04:57:31.058Z,56.40
2019-05-09T04:59:59.081Z,56.37
2019-05-09T05:02:39.472Z,56.36
2019-05-09T05:05:07.914Z,56.30
2019-05-09T05:07:37.595Z,56.30
2019-05-09T05:10:08.792Z,56.35
2019-05-09T05:12:37.990Z,56.33
2019-05-09T05:15:05.356Z,56.28
2019-05-09T05:17:33.375Z,56.32
2019-05-09T05:20:02.794Z,56.24
2019-05-09T05:22:38.711Z,56.27
2019-05-09T05:25:08.987Z,56.19
2019-05-09T05:27:38.224Z,56.33
2019-05-09T05:30:07.567Z,56.43
2019-05-09T05:32:48.810Z,56.40
2019-05-09T05:35:29.134Z,56.40
2019-05-09T05:37:58.059Z,56.42
2019-05-09T05:40:32.881Z,56.24
2019-05-09T05:42:58.606Z,56.59
2019-05-09T05:45:28.552Z,56.95
2019-05-09T05:48:09.380Z,57.14
2019-05-09T05:50:38.226Z,57.14
2019-05-09T05:53:07.958Z,57.19
2019-05-09T05:55:37.977Z,57.33
2019-05-09T05:58:28.212Z,57.35
2019-05-09T06:00:58.863Z,57.63
2019-05-09T06:03:34.367Z,57.81
2019-05-09T06:06:02.360Z,58.02
2019-05-09T06:08:30.457Z,57.91
2019-05-09T06:10:58.617Z,57.85
2019-05-09T06:13:27.547Z,57.93
2019-05-09T06:15:55.765Z,57.98
2019-05-09T06:18:23.805Z,57.95
2019-05-09T06:20:52.014Z,58.17
2019-05-09T06:23:20.049Z,58.43
2019-05-09T06:25:48.609Z,58.69
2019-05-09T06:28:18.441Z,58.65
2019-05-09T06:30:49.615Z,58.56
2019-05-09T06:33:18.204Z,58.55
2019-05-09T06:35:48.105Z,58.53
2019-05-09T06:38:18.535Z,58.37
2019-05-09T06:40:47.600Z,58.44
2019-05-09T06:43:24.123Z,58.31
2019-05-09T06:46:13.667Z,58.27
2019-05-09T06:48:41.751Z,58.37
2019-05-09T06:51:11.062Z,58.33
2019-05-09T06:53:39.560Z,58.27
2019-05-09T06:56:07.678Z,58.29
2019-05-09T06:58:38.251Z,58.21
2019-05-09T07:04:39.183Z,58.34
2019-05-09T07:07:31.405Z,58.40
2019-05-09T07:10:07.578Z,58.40
2019-05-09T07:12:41.646Z,58.56
2019-05-09T07:15:10.154Z,58.78
2019-05-09T07:17:39.245Z,58.91
2019-05-09T07:20:08.413Z,58.82
2019-05-09T07:22:44.232Z,58.95
2019-05-09T07:25:27.739Z,58.75
2019-05-09T07:27:58.484Z,58.77
2019-05-09T07:30:43.182Z,58.89
2019-05-09T07:33:27.886Z,58.81
2019-05-09T07:35:58.088Z,58.81
2019-05-09T07:38:29.931Z,58.79
2019-05-09T07:40:58.133Z,58.75
2019-05-09T07:43:28.159Z,58.70
2019-05-09T07:46:11.905Z,58.71
2019-05-09T07:48:40.005Z,58.61
2019-05-09T07:51:08.155Z,58.62
2019-05-09T07:53:38.006Z,58.51
2019-05-09T07:56:07.941Z,58.57
2019-05-09T07:58:37.702Z,58.62
2019-05-09T08:01:05.410Z,58.72
2019-05-09T08:03:33.848Z,58.71
2019-05-09T08:06:02.332Z,58.69
2019-05-09T08:08:30.365Z,58.59
2019-05-09T08:10:58.658Z,58.51
2019-05-09T08:13:28.959Z,58.40
2019-05-09T08:15:58.553Z,58.36
2019-05-09T08:18:28.185Z,57.98
2019-05-09T08:20:57.756Z,57.92
2019-05-09T08:23:27.469Z,57.81
2019-05-09T08:25:57.727Z,57.85
2019-05-09T08:28:27.622Z,57.59
2019-05-09T08:30:55.137Z,57.77
2019-05-09T08:33:23.212Z,57.78
2019-05-09T08:35:52.697Z,57.91
2019-05-09T08:38:20.980Z,57.84
2019-05-09T08:40:52.660Z,57.67
2019-05-09T08:43:20.709Z,57.73
2019-05-09T08:45:55.018Z,57.78
2019-05-09T08:48:23.114Z,58.04
2019-05-09T08:50:55.390Z,57.93
2019-05-09T08:53:23.343Z,57.57
2019-05-09T08:55:51.454Z,57.67
2019-05-09T08:58:20.047Z,57.64
2019-05-09T09:00:49.032Z,57.40
2019-05-09T09:03:18.497Z,57.40
2019-05-09T09:05:48.600Z,57.42
2019-05-09T09:08:18.369Z,57.46
2019-05-09T09:10:48.607Z,57.22
2019-05-09T09:13:17.541Z,57.16
2019-05-09T09:16:05.677Z,57.14
2019-05-09T09:18:18.018Z,57.40
2019-05-09T09:20:48.560Z,57.13
2019-05-09T09:23:18.030Z,57.46
2019-05-09T09:26:12.461Z,57.26
2019-05-09T09:28:40.280Z,57.33
2019-05-09T09:31:08.404Z,57.24
2019-05-09T09:33:37.648Z,57.14
2019-05-09T09:36:08.534Z,57.03
2019-05-09T09:38:37.515Z,57.02
2019-05-09T09:41:07.838Z,57.20
2019-05-09T09:43:35.223Z,57.02
2019-05-09T09:46:10.476Z,57.14
2019-05-09T09:48:33.008Z,57.18
2019-05-09T09:51:01.036Z,57.30
2019-05-09T09:53:29.019Z,57.43
2019-05-09T09:55:58.042Z,57.47
2019-05-09T09:58:27.390Z,57.33
2019-05-09T10:01:18.121Z,57.40
2019-05-09T10:03:47.890Z,57.52
2019-05-09T10:06:15.908Z,57.59
2019-05-09T10:08:43.982Z,57.63
2019-05-09T10:11:12.031Z,57.69
2019-05-09T10:13:40.040Z,57.70
2019-05-09T10:16:47.639Z,57.69
2019-05-09T10:19:32.202Z,57.77
2019-05-09T10:22:01.436Z,57.75
2019-05-09T10:24:29.436Z,57.76
2019-05-09T10:27:08.863Z,57.81
2019-05-09T10:29:40.586Z,57.80
2019-05-09T10:32:13.564Z,57.90
2019-05-09T10:34:41.586Z,57.91
2019-05-09T10:40:16.641Z,57.89
2019-05-09T10:42:49.623Z,57.93
2019-05-09T10:45:40.815Z,57.96
2019-05-09T10:48:12.120Z,58.01
2019-05-09T10:50:46.124Z,58.02
2019-05-09T10:53:14.353Z,58.04
2019-05-09T10:55:42.433Z,58.08
2019-05-09T10:58:10.615Z,58.12
2019-05-09T11:00:39.581Z,58.17
2019-05-09T11:03:08.696Z,58.11
2019-05-09T11:05:36.946Z,58.06
2019-05-09T11:08:04.933Z,58.05
2019-05-09T11:10:33.085Z,58.04
2019-05-09T11:13:01.185Z,58.00
2019-05-09T11:15:29.222Z,57.98
2019-05-09T11:17:57.793Z,57.95
2019-05-09T11:20:28.453Z,57.96
2019-05-09T11:22:58.016Z,57.90
2019-05-09T11:25:27.641Z,57.85
2019-05-09T11:28:10.088Z,57.92
2019-05-09T11:30:24.917Z,57.87
2019-05-09T11:32:52.948Z,57.85
2019-05-09T11:35:21.039Z,57.92
2019-05-09T11:37:49.113Z,57.83
2019-05-09T11:40:17.135Z,57.85
2019-05-09T11:42:45.160Z,57.86
2019-05-09T11:45:13.175Z,57.79
2019-05-09T11:47:46.295Z,57.76
2019-05-09T11:50:10.990Z,57.77
2019-05-09T11:52:39.000Z,57.76
2019-05-09T11:55:07.920Z,57.66
2019-05-09T11:57:38.517Z,57.64
2019-05-09T12:00:08.355Z,57.71
2019-05-09T12:02:38.580Z,57.67
2019-05-09T12:05:08.510Z,57.69
2019-05-09T12:07:37.898Z,57.65
2019-05-09T12:10:07.805Z,57.59
2019-05-09T12:12:35.611Z,57.64
2019-05-09T12:15:03.581Z,57.62
2019-05-09T12:17:49.710Z,57.58
2019-05-09T12:20:09.419Z,57.54
2019-05-09T12:22:31.178Z,57.53
2019-05-09T12:24:59.423Z,57.53
2019-05-09T12:27:28.088Z,57.50
2019-05-09T12:29:58.057Z,57.48
2019-05-09T12:32:28.270Z,57.47
2019-05-09T12:34:57.755Z,57.45
2019-05-09T12:37:27.521Z,57.45
2019-05-09T12:39:55.162Z,57.46
2019-05-09T12:42:23.266Z,57.47
2019-05-09T12:44:51.320Z,57.45
2019-05-09T12:47:19.346Z,57.44
2019-05-09T12:49:48.797Z,57.42
2019-05-09T12:52:18.625Z,57.43
2019-05-09T12:54:48.358Z,57.45
2019-05-09T12:57:19.266Z,57.47
2019-05-09T12:59:49.853Z,57.46
2019-05-09T13:02:17.746Z,57.50
2019-05-09T13:04:47.619Z,57.49
2019-05-09T13:07:15.475Z,57.53
2019-05-09T13:09:43.511Z,57.47
2019-05-09T13:12:11.665Z,57.46
2019-05-09T13:14:39.685Z,57.43
2019-05-09T13:17:22.101Z,57.41
2019-05-09T13:19:50.227Z,57.40
2019-05-09T13:22:18.491Z,57.46
2019-05-09T13:24:47.476Z,57.46
2019-05-09T13:27:15.664Z,57.49
2019-05-09T13:29:43.854Z,57.46
2019-05-09T13:32:11.865Z,57.46
2019-05-09T13:34:39.889Z,57.35
2019-05-09T13:37:09.045Z,57.37
2019-05-09T13:39:39.598Z,57.37
2019-05-09T13:42:08.188Z,57.37
2019-05-09T13:44:41.101Z,57.31
2019-05-09T13:47:06.097Z,57.29
2019-05-09T13:49:34.116Z,57.34
2019-05-09T13:52:05.033Z,57.27
2019-05-09T13:54:31.956Z,57.28
2019-05-09T13:57:01.493Z,57.15
2019-05-09T13:59:30.331Z,57.15
2019-05-09T14:01:58.641Z,57.20
2019-05-09T14:04:28.657Z,57.18
2019-05-09T14:06:56.491Z,57.21
2019-05-09T14:09:24.523Z,57.16
2019-05-09T14:11:52.512Z,57.14
2019-05-09T14:14:20.517Z,57.12
2019-05-09T14:16:48.591Z,57.17
2019-05-09T14:19:34.483Z,57.09
2019-05-09T14:21:48.116Z,57.14
2019-05-09T14:24:19.041Z,57.11
2019-05-09T14:26:47.983Z,57.08
2019-05-09T14:29:20.131Z,57.05
2019-05-09T14:31:45.411Z,57.01
2019-05-09T14:34:13.434Z,56.98
2019-05-09T14:36:45.354Z,57.04
2019-05-09T14:39:11.362Z,57.08
2019-05-09T14:41:39.502Z,57.14
2019-05-09T14:44:09.319Z,57.16
2019-05-09T14:46:39.120Z,57.24
2019-05-09T14:49:07.957Z,57.23
2019-05-09T14:51:38.107Z,57.21
2019-05-09T14:54:08.339Z,57.22
2019-05-09T14:56:41.736Z,57.21
2019-05-09T14:59:10.007Z,57.24
2019-05-09T15:01:43.077Z,57.21
2019-05-09T15:04:09.090Z,57.20
2019-05-09T15:06:37.269Z,57.20
2019-05-09T15:09:05.465Z,57.19
2019-05-09T15:11:33.521Z,57.17
2019-05-09T15:14:01.673Z,57.05
2019-05-09T15:16:29.768Z,56.97
2019-05-09T15:18:58.444Z,57.11
2019-05-09T15:21:26.728Z,57.06
2019-05-09T15:23:54.738Z,57.08
2019-05-09T15:26:22.832Z,57.11
2019-05-09T15:28:50.845Z,57.08
2019-05-09T15:31:19.315Z,57.03
2019-05-09T15:33:48.577Z,57.02
2019-05-09T15:36:19.231Z,57.10
2019-05-09T15:38:48.641Z,57.11
2019-05-09T15:41:18.326Z,57.11
2019-05-09T15:43:48.539Z,57.11
2019-05-09T15:46:30.926Z,57.11
2019-05-09T15:48:58.895Z,57.15
2019-05-09T15:51:27.965Z,57.15
2019-05-09T15:53:57.754Z,57.09
2019-05-09T15:56:28.670Z,57.08
2019-05-09T15:58:57.826Z,57.13
2019-05-09T16:01:27.716Z,57.08
2019-05-09T16:03:55.179Z,57.07
2019-05-09T16:06:23.252Z,57.14
2019-05-09T16:08:51.342Z,57.04
2019-05-09T16:11:19.392Z,58.91
2019-05-09T16:13:47.997Z,59.07
2019-05-09T16:16:17.610Z,60.52
2019-05-09T16:18:48.321Z,61.30
2019-05-09T16:21:15.610Z,61.69
2019-05-09T16:23:43.589Z,60.19
2019-05-09T16:26:11.653Z,60.15
2019-05-09T16:28:39.780Z,59.82
2019-05-09T16:31:07.816Z,59.62
2019-05-09T16:33:35.852Z,59.49
2019-05-09T16:36:03.898Z,59.30
2019-05-09T16:38:42.183Z,59.20
2019-05-09T16:41:01.704Z,59.03
2019-05-09T16:43:29.744Z,58.91
2019-05-09T16:45:58.200Z,58.82
2019-05-09T16:48:27.643Z,58.67
2019-05-09T16:51:03.315Z,58.65
2019-05-09T16:53:27.722Z,58.63
2019-05-09T16:55:57.681Z,58.50
2019-05-09T16:58:27.341Z,58.48
2019-05-09T17:00:55.151Z,58.31
2019-05-09T17:03:23.197Z,59.47
2019-05-09T17:05:51.268Z,59.43
2019-05-09T17:08:19.319Z,59.59
2019-05-09T17:10:48.688Z,59.65
2019-05-09T17:13:18.470Z,59.75
2019-05-09T17:15:46.742Z,59.85
2019-05-09T17:18:14.866Z,60.01
2019-05-09T17:21:17.666Z,60.14
2019-05-09T17:23:33.388Z,60.20
2019-05-09T17:26:01.388Z,60.27
2019-05-09T17:28:29.436Z,60.24
2019-05-09T17:30:58.031Z,60.16
2019-05-09T17:33:28.428Z,60.06
2019-05-09T17:35:57.802Z,60.02
2019-05-09T17:38:28.542Z,60.02
2019-05-09T17:40:57.650Z,60.02
2019-05-09T17:43:27.842Z,60.05
2019-05-09T17:45:58.200Z,60.01
2019-05-09T17:48:28.267Z,60.01
2019-05-09T17:50:57.668Z,60.09
2019-05-09T17:53:25.167Z,60.27
2019-05-09T17:55:53.177Z,60.43
2019-05-09T17:58:29.284Z,60.55
2019-05-09T18:00:51.010Z,60.83
2019-05-09T18:03:21.042Z,60.90
2019-05-09T18:05:49.085Z,61.01
2019-05-09T18:08:18.766Z,61.13
2019-05-09T18:10:48.477Z,61.02
2019-05-09T18:13:23.567Z,61.17
2019-05-09T18:15:48.344Z,61.15
2019-05-09T18:18:18.458Z,61.00
2019-05-09T18:20:46.491Z,61.65
2019-05-09T18:23:14.535Z,61.85
2019-05-09T18:25:42.702Z,61.80
2019-05-09T18:28:10.936Z,61.78
2019-05-09T18:30:39.044Z,61.89
2019-05-09T18:33:15.170Z,61.99
2019-05-09T18:35:43.292Z,62.15
2019-05-09T18:38:11.379Z,62.36
2019-05-09T18:40:39.387Z,62.45
2019-05-09T18:43:07.765Z,62.59
2019-05-09T18:45:37.573Z,62.55
2019-05-09T18:48:08.255Z,62.82
2019-05-09T18:50:35.534Z,62.82
2019-05-09T18:53:03.802Z,62.61
2019-05-09T18:55:31.977Z,62.59
2019-05-09T18:58:00.075Z,62.47
2019-05-09T19:00:28.150Z,62.27
2019-05-09T19:02:56.174Z,61.80
2019-05-09T19:05:25.477Z,61.89
2019-05-09T19:07:53.554Z,61.72
2019-05-09T19:10:21.711Z,61.55
2019-05-09T19:12:49.805Z,61.45
2019-05-09T19:15:30.427Z,61.35
2019-05-09T19:18:13.787Z,61.11
2019-05-09T19:20:56.200Z,60.74
2019-05-09T19:23:24.273Z,61.32
2019-05-09T19:25:52.304Z,61.10
2019-05-09T19:28:23.851Z,60.94
2019-05-09T19:30:50.245Z,60.97
2019-05-09T19:33:18.328Z,61.36
2019-05-09T19:36:00.581Z,61.62
2019-05-09T19:38:28.714Z,62.16
2019-05-09T19:40:56.833Z,61.67
2019-05-09T19:43:24.911Z,61.84
2019-05-09T19:45:53.041Z,62.35
2019-05-09T19:48:21.078Z,62.20
2019-05-09T19:50:49.118Z,62.35
2019-05-09T19:53:17.155Z,62.45
2019-05-09T19:55:45.167Z,62.44
2019-05-09T19:58:13.236Z,62.61
2019-05-09T20:00:41.403Z,62.49
2019-05-09T20:03:09.419Z,62.64
2019-05-09T20:05:37.469Z,62.58
2019-05-09T20:08:05.588Z,62.65
2019-05-09T20:10:51.230Z,62.58
2019-05-09T20:13:36.070Z,62.68
2019-05-09T20:16:04.221Z,62.81
2019-05-09T20:18:32.509Z,62.63
2019-05-09T20:21:00.615Z,62.61
2019-05-09T20:23:28.672Z,62.84
2019-05-09T20:25:57.027Z,63.00
2019-05-09T20:28:25.237Z,62.84
2019-05-09T20:30:53.304Z,63.01
2019-05-09T20:33:21.360Z,63.09
2019-05-09T20:35:50.536Z,63.08
2019-05-09T20:38:18.805Z,63.10
2019-05-09T20:40:47.032Z,63.13
2019-05-09T20:43:15.318Z,63.02
2019-05-09T20:45:43.520Z,63.19
2019-05-09T20:48:11.819Z,63.17
2019-05-09T20:50:40.122Z,63.27
2019-05-09T20:53:09.949Z,63.40
2019-05-09T20:55:38.386Z,63.48
2019-05-09T20:58:06.638Z,63.42
2019-05-09T21:00:34.889Z,63.58
2019-05-09T21:03:03.149Z,63.55
2019-05-09T21:05:31.402Z,63.48
2019-05-09T21:07:59.625Z,63.10
2019-05-09T21:10:27.974Z,62.14
2019-05-09T21:12:56.229Z,62.17
2019-05-09T21:15:24.976Z,62.21
2019-05-09T21:17:53.473Z,62.16
2019-05-09T21:20:21.815Z,62.25
2019-05-09T21:22:50.097Z,62.28
2019-05-09T21:25:18.424Z,62.25
2019-05-09T21:27:46.676Z,62.24
2019-05-09T21:30:15.107Z,62.22
2019-05-09T21:32:43.457Z,62.14
2019-05-09T21:35:11.493Z,62.16
2019-05-09T21:37:39.565Z,62.48
2019-05-09T21:40:07.742Z,62.93
2019-05-09T21:42:35.861Z,62.45
2019-05-09T21:45:03.940Z,62.51
2019-05-09T21:47:31.983Z,62.58
2019-05-09T21:50:00.042Z,62.57
2019-05-09T21:52:28.084Z,62.61
2019-05-09T21:54:56.074Z,62.67
2019-05-09T21:57:24.385Z,62.54
2019-05-09T21:59:52.389Z,62.55
2019-05-09T22:02:20.469Z,62.68
2019-05-09T22:04:48.629Z,62.67
2019-05-09T22:07:16.765Z,62.75
2019-05-09T22:09:44.773Z,62.71
2019-05-09T22:12:12.842Z,62.69
2019-05-09T22:14:40.818Z,62.93
2019-05-09T22:17:14.700Z,62.81
2019-05-09T22:19:42.719Z,62.74
2019-05-09T22:22:10.764Z,62.97
2019-05-09T22:24:38.809Z,62.97
2019-05-09T22:27:06.864Z,62.95
2019-05-09T22:29:34.893Z,63.12
2019-05-09T22:32:02.915Z,63.10
2019-05-09T22:34:30.951Z,63.04
2019-05-09T22:36:58.993Z,62.70
2019-05-09T22:39:26.960Z,63.03
2019-05-09T22:41:55.049Z,63.29
2019-05-09T22:44:23.102Z,63.36
2019-05-09T22:46:51.077Z,63.16
2019-05-09T22:49:19.149Z,63.08
2019-05-09T22:51:49.485Z,63.10
2019-05-09T22:54:17.484Z,63.00
2019-05-09T22:56:45.543Z,62.94
2019-05-09T22:59:13.581Z,63.00
2019-05-09T23:01:41.692Z,62.87
2019-05-09T23:04:09.724Z,62.87
2019-05-09T23:06:37.872Z,62.88
2019-05-09T23:09:05.971Z,62.70
2019-05-09T23:11:34.081Z,62.58
2019-05-09T23:14:02.078Z,62.58
2019-05-09T23:16:32.726Z,62.63
2019-05-09T23:19:00.719Z,62.47
2019-05-09T23:21:29.870Z,62.42
2019-05-09T23:24:28.027Z,62.33
2019-05-09T23:26:48.803Z,62.25
2019-05-09T23:29:16.798Z,62.22
2019-05-09T23:32:08.992Z,62.11
2019-05-09T23:34:36.989Z,62.16
2019-05-09T23:37:05.009Z,62.00
2019-05-09T23:39:40.718Z,61.87
2019-05-09T23:42:08.767Z,61.90
2019-05-09T23:44:36.773Z,61.90
2019-05-09T23:47:04.794Z,61.80
2019-05-09T23:49:32.806Z,61.75
2019-05-09T23:52:00.838Z,61.68
2019-05-09T23:54:47.667Z,61.73
2019-05-09T23:57:34.081Z,61.61
